Time;durP1;ratioP1;P1;durP2;ratioP2;P2;SDS_P1;SDS_P2;PMS_P1;PMS_P2;Temp;Humidity;BMP_temperature;BMP_pressure;BME280_temperature;BME280_humidity;BME280_pressure;Samples;Min_cycle;Max_cycle;Signal;HPM_P1;HPM_P2
2023/06/04 00:01:15;;;;;;;1.83;1.15;;;15.00;93.30;;;15.35;100.00;99621.69;4913648;29;20247;-73
2023/06/04 00:03:43;;;;;;;1.88;1.20;;;15.00;92.50;;;15.36;100.00;99611.00;4911631;29;20307;-73
2023/06/04 00:06:11;;;;;;;2.83;1.50;;;15.00;92.70;;;15.29;100.00;99609.38;4910630;29;20257;-73
2023/06/04 00:08:38;;;;;;;2.00;1.30;;;15.00;93.20;;;15.37;100.00;99631.41;4912793;29;20242;-73
2023/06/04 00:11:05;;;;;;;2.22;1.30;;;15.00;93.60;;;15.13;100.00;99594.69;4913022;29;20254;-73
2023/06/04 00:13:32;;;;;;;3.22;1.85;;;14.90;93.40;;;15.25;100.00;99615.69;4912843;29;20242;-73
2023/06/04 00:15:59;;;;;;;2.83;1.52;;;14.90;93.10;;;15.22;100.00;99599.78;4913226;29;20242;-73
2023/06/04 00:18:26;;;;;;;1.90;1.10;;;14.90;92.70;;;15.16;100.00;99594.59;4912821;29;20258;-73
2023/06/04 00:20:53;;;;;;;4.30;2.00;;;14.80;92.60;;;15.13;100.00;99588.47;4911097;29;20230;-73
2023/06/04 00:23:20;;;;;;;2.70;1.60;;;14.80;92.70;;;15.16;100.00;99586.63;4911777;29;20246;-73
2023/06/04 00:25:48;;;;;;;2.72;1.55;;;14.90;92.70;;;15.13;100.00;99591.13;4909989;29;20237;-73
2023/06/04 00:28:15;;;;;;;2.38;1.52;;;14.80;92.90;;;15.18;100.00;99587.44;4913815;29;20247;-73
2023/06/04 00:30:42;;;;;;;3.85;2.15;;;;;;;15.19;100.00;99575.88;4904378;29;20234;-73
2023/06/04 00:33:09;;;;;;;3.17;1.83;;;14.90;92.10;;;15.15;100.00;99586.66;4910631;29;20246;-73
2023/06/04 00:35:36;;;;;;;3.28;1.88;;;14.80;92.70;;;15.06;100.00;99577.09;4927527;29;20260;-73
2023/06/04 00:38:03;;;;;;;2.58;1.60;;;14.70;92.50;;;15.08;100.00;99583.25;4914520;29;20242;-73
2023/06/04 00:40:30;;;;;;;4.32;2.17;;;14.70;92.70;;;15.17;100.00;99607.00;4912148;29;20249;-72
2023/06/04 00:42:58;;;;;;;3.40;1.80;;;14.80;93.10;;;15.04;100.00;99586.91;4911208;29;20242;-73
2023/06/04 00:45:25;;;;;;;2.63;1.50;;;14.70;92.70;;;15.09;100.00;99600.97;4908503;29;20236;-73
2023/06/04 00:47:53;;;;;;;3.42;1.73;;;14.60;92.30;;;15.00;100.00;99588.75;4908487;29;20235;-73
2023/06/04 00:50:21;;;;;;;2.58;1.55;;;14.70;92.70;;;14.95;100.00;99590.63;4911690;29;20262;-73
2023/06/04 00:52:50;;;;;;;3.25;1.92;;;14.60;92.80;;;15.04;100.00;99625.03;4908842;29;20261;-73
2023/06/04 00:55:20;;;;;;;2.75;1.45;;;14.70;93.30;;;14.88;100.00;99591.69;4905123;29;20239;-72
2023/06/04 00:57:48;;;;;;;3.92;1.90;;;14.60;92.50;;;14.92;100.00;99606.69;4910150;29;20254;-75
2023/06/04 01:00:15;;;;;;;3.53;1.95;;;14.60;92.90;;;14.93;100.00;99621.75;4922445;29;20231;-75
2023/06/04 01:02:45;;;;;;;3.67;1.77;;;14.60;92.50;;;14.94;100.00;99604.88;4908825;29;20234;-74
2023/06/04 01:05:21;;;;;;;3.50;1.75;;;14.60;92.70;;;14.83;100.00;99604.22;4906397;29;20246;-75
2023/06/04 01:07:49;;;;;;;3.75;1.73;;;14.50;93.00;;;14.74;100.00;99615.06;4904865;29;20242;-73
2023/06/04 01:10:16;;;;;;;1.85;1.20;;;14.40;93.30;;;14.70;100.00;99602.72;4911372;29;20243;-73
2023/06/04 01:12:44;;;;;;;3.65;1.75;;;;;;;14.66;100.00;99593.94;4911347;29;20230;-73
2023/06/04 01:15:12;;;;;;;3.47;1.80;;;;;;;14.72;100.00;99623.06;4908950;29;20238;-73
2023/06/04 01:17:42;;;;;;;2.88;1.58;;;14.40;92.80;;;14.70;100.00;99632.88;4909605;29;20239;-73
2023/06/04 01:20:18;;;;;;;2.30;1.38;;;14.40;93.10;;;14.73;100.00;99639.91;4911057;29;20254;-74
2023/06/04 01:22:59;;;;;;;2.10;1.30;;;14.40;93.00;;;14.62;100.00;99617.97;4907992;29;20249;-73
2023/06/04 01:25:41;;;;;;;3.22;1.65;;;14.40;92.80;;;14.57;100.00;99614.53;4912386;29;20270;-73
2023/06/04 01:28:11;;;;;;;2.30;1.33;;;14.30;93.00;;;14.62;100.00;99644.59;4911529;29;20305;-73
2023/06/04 01:30:45;;;;;;;3.17;1.85;;;14.30;93.30;;;14.68;100.00;99650.66;4911013;29;20609;-73
2023/06/04 01:33:18;;;;;;;1.98;1.23;;;14.30;93.20;;;14.56;100.00;99631.41;4913237;29;20593;-73
2023/06/04 01:35:46;;;;;;;3.08;1.55;;;14.20;92.80;;;14.49;100.00;99635.09;4906070;29;20243;-73
2023/06/04 01:38:13;;;;;;;3.13;1.63;;;14.20;93.10;;;14.44;100.00;99636.97;4912902;29;20257;-73
2023/06/04 01:40:40;;;;;;;2.80;1.65;;;14.20;93.20;;;14.41;100.00;99641.41;4912591;29;20246;-73
2023/06/04 01:43:08;;;;;;;2.88;1.60;;;14.20;93.00;;;14.48;100.00;99650.19;4912722;29;20255;-73
2023/06/04 01:45:35;;;;;;;16.08;8.30;;;14.20;93.20;;;14.38;100.00;99632.59;4922560;29;20235;-73
2023/06/04 01:48:05;;;;;;;4.22;2.28;;;14.10;93.00;;;14.42;100.00;99663.59;4896297;29;20251;-73
2023/06/04 01:50:32;;;;;;;4.60;2.55;;;14.10;93.60;;;14.27;100.00;99634.56;4905392;29;20243;-73
2023/06/04 01:52:59;;;;;;;2.97;1.40;;;14.00;92.90;;;14.18;100.00;99624.09;4924897;29;20227;-73
2023/06/04 01:55:29;;;;;;;4.03;1.92;;;14.00;93.00;;;14.17;100.00;99631.19;4908599;29;20335;-73
2023/06/04 01:57:56;;;;;;;4.55;2.22;;;13.90;93.00;;;14.15;100.00;99629.47;4911987;29;20306;-76
2023/06/04 02:00:23;;;;;;;4.05;1.83;;;13.80;93.00;;;14.03;100.00;99620.81;4912266;29;20239;-76
2023/06/04 02:02:51;;;;;;;3.55;1.80;;;13.70;92.90;;;14.06;100.00;99641.16;4903409;29;20239;-72
2023/06/04 02:05:18;;;;;;;3.20;1.73;;;13.70;93.60;;;13.99;100.00;99643.03;4908727;29;20247;-73
2023/06/04 02:07:47;;;;;;;3.28;1.75;;;13.70;93.00;;;14.04;100.00;99658.91;4911385;29;20235;-73
2023/06/04 02:10:17;;;;;;;3.05;1.50;;;13.70;93.40;;;14.06;100.00;99676.59;4909589;29;20246;-73
2023/06/04 02:13:03;;;;;;;3.45;1.48;;;13.70;93.40;;;13.98;100.00;99683.81;4911250;29;20683;-73
2023/06/04 02:15:31;;;;;;;4.32;2.85;;;13.70;93.70;;;13.93;100.00;99704.28;4912159;29;20239;-73
2023/06/04 02:18:21;;;;;;;3.03;1.63;;;13.60;94.30;;;13.90;100.00;99703.44;4908663;29;20263;-73
2023/06/04 02:20:49;;;;;;;6.35;2.60;;;13.60;94.20;;;13.90;100.00;99738.00;4905781;29;20347;-73
2023/06/04 02:23:19;;;;;;;2.88;1.55;;;13.60;94.50;;;13.73;100.00;99699.28;4911422;29;20262;-73
2023/06/04 02:25:47;;;;;;;3.30;1.52;;;13.50;93.90;;;13.81;100.00;99724.84;4908216;29;20242;-73
2023/06/04 02:28:15;;;;;;;3.00;1.60;;;13.50;94.40;;;13.76;100.00;99716.94;4911329;29;20245;-73
2023/06/04 02:30:45;;;;;;;5.28;2.40;;;13.40;94.10;;;13.80;100.00;99731.06;4910035;29;20231;-73
2023/06/04 02:33:12;;;;;;;2.53;1.48;;;13.50;94.10;;;13.68;100.00;99718.84;4910848;29;20250;-74
2023/06/04 02:35:40;;;;;;;3.05;1.60;;;13.40;93.70;;;13.71;100.00;99732.97;4911954;29;20231;-73
2023/06/04 02:38:07;;;;;;;3.92;1.85;;;14.20;94.60;;;13.66;100.00;99749.88;4907656;29;20278;-73
2023/06/04 02:40:35;;;;;;;2.83;1.58;;;13.30;94.00;;;13.55;100.00;99730.56;4913944;29;20247;-73
2023/06/04 02:43:02;;;;;;;3.28;1.58;;;13.30;93.90;;;13.60;100.00;99755.28;4913408;29;20246;-73
2023/06/04 02:45:29;;;;;;;3.05;1.67;;;13.30;94.00;;;13.56;100.00;99734.97;4914550;29;20247;-73
2023/06/04 02:47:57;;;;;;;3.28;1.60;;;13.20;93.70;;;13.48;100.00;99729.75;4910377;29;20236;-73
2023/06/04 02:50:24;;;;;;;4.63;2.17;;;13.20;93.90;;;13.55;100.00;99758.00;4912732;29;20302;-73
2023/06/04 02:52:51;;;;;;;3.50;1.85;;;13.20;94.40;;;13.48;100.00;99743.03;4912147;29;20239;-73
2023/06/04 02:55:19;;;;;;;3.90;2.00;;;13.10;94.30;;;13.46;100.00;99750.16;4908914;29;20247;-73
2023/06/04 02:57:46;;;;;;;4.10;1.88;;;13.20;93.80;;;13.43;100.00;99766.13;4912549;29;20604;-73
2023/06/04 03:00:14;;;;;;;4.10;2.17;;;13.20;94.40;;;13.54;100.00;99806.72;4914516;29;20277;-74
2023/06/04 03:02:44;;;;;;;3.63;1.70;;;13.20;94.40;;;13.41;100.00;99800.69;4913592;29;20231;-74
2023/06/04 03:05:14;;;;;;;3.08;1.67;;;13.20;94.40;;;13.45;100.00;99831.63;4909516;29;20244;-74
2023/06/04 03:07:44;;;;;;;3.80;1.90;;;13.10;95.00;;;13.44;100.00;99802.41;4913777;29;20369;-73
2023/06/04 03:10:14;;;;;;;2.67;1.67;;;13.10;94.40;;;13.34;100.00;99795.47;4913524;29;20322;-74
2023/06/04 03:12:41;;;;;;;4.28;2.10;;;13.10;94.40;;;13.41;100.00;99826.38;4911356;29;20238;-73
2023/06/04 03:15:09;;;;;;;3.22;1.67;;;13.10;94.50;;;13.43;100.00;99832.53;4913506;29;20246;-73
2023/06/04 03:17:37;;;;;;;3.53;1.83;;;13.10;94.50;;;13.36;100.00;99815.78;4914975;29;20263;-74
2023/06/04 03:20:06;;;;;;;2.83;1.95;;;13.10;94.20;;;13.25;100.00;99817.69;4910897;29;20255;-73
2023/06/04 03:22:35;;;;;;;3.58;1.85;;;13.00;94.20;;;13.28;100.00;99830.94;4907187;29;20234;-73
2023/06/04 03:25:04;;;;;;;2.65;1.60;;;13.00;94.70;;;13.21;100.00;99815.97;4913734;29;20317;-74
2023/06/04 03:27:33;;;;;;;2.50;1.45;;;13.00;94.20;;;13.36;100.00;99857.41;4911462;29;20254;-74
2023/06/04 03:30:00;;;;;;;3.20;1.67;;;12.90;94.90;;;13.25;100.00;99841.59;4914703;29;20679;-73
2023/06/04 03:32:27;;;;;;;3.20;1.52;;;13.00;94.40;;;13.20;100.00;99808.03;4914102;29;20235;-74
2023/06/04 03:34:54;;;;;;;4.55;2.15;;;12.90;93.70;;;13.17;100.00;99810.72;4914552;29;20302;-73
2023/06/04 03:37:21;;;;;;;2.78;1.40;;;12.90;94.20;;;13.17;100.00;99819.56;4910218;29;20656;-73
2023/06/04 03:39:48;;;;;;;3.67;1.80;;;12.90;94.40;;;13.08;100.00;99804.59;4914779;29;20261;-73
2023/06/04 03:42:16;;;;;;;2.95;1.50;;;12.80;93.90;;;13.25;100.00;99854.00;4921088;29;20727;-73
2023/06/04 03:44:43;;;;;;;2.53;1.40;;;12.90;94.60;;;13.07;100.00;99808.13;4912582;29;20247;-75
2023/06/04 03:47:10;;;;;;;3.50;1.75;;;12.80;94.00;;;13.12;100.00;99834.63;4908857;29;20247;-73
2023/06/04 03:49:37;;;;;;;4.40;2.03;;;12.90;94.50;;;13.02;100.00;99817.03;4906476;29;20262;-73
2023/06/04 03:52:04;;;;;;;2.78;1.48;;;12.80;94.20;;;13.16;100.00;99854.94;4911924;29;20246;-73
2023/06/04 03:54:31;;;;;;;3.22;1.67;;;12.80;94.60;;;13.07;100.00;99841.75;4914838;29;20357;-73
2023/06/04 03:56:58;;;;;;;3.95;1.80;;;12.80;94.20;;;13.13;100.00;99860.28;4912990;29;20306;-73
2023/06/04 03:59:25;;;;;;;2.90;1.58;;;12.80;94.90;;;13.10;100.00;99862.97;4927460;29;20247;-74
2023/06/04 04:01:52;;;;;;;3.80;1.88;;;12.80;94.50;;;13.13;100.00;99865.59;4910256;29;20239;-73
2023/06/04 04:04:20;;;;;;;3.22;1.50;;;12.80;94.60;;;13.06;100.00;99859.47;4912454;29;20234;-74
2023/06/04 04:06:48;;;;;;;3.63;1.92;;;12.80;94.40;;;13.06;100.00;99854.16;4911896;29;20312;-73
2023/06/04 04:09:15;;;;;;;2.80;1.50;;;12.80;94.00;;;13.08;100.00;99886.88;4911997;29;20243;-74
2023/06/04 04:11:42;;;;;;;2.80;1.48;;;12.80;94.90;;;13.20;100.00;99920.41;4912702;29;20238;-73
2023/06/04 04:14:09;;;;;;;3.28;1.67;;;12.80;95.10;;;13.09;100.00;99909.00;4919110;29;20238;-73
2023/06/04 04:16:36;;;;;;;4.75;2.30;;;12.80;95.00;;;12.97;100.00;99872.78;4912566;29;20239;-73
2023/06/04 04:19:03;;;;;;;4.00;2.00;;;12.70;94.00;;;12.93;100.00;99868.41;4912531;29;20258;-73
2023/06/04 04:21:30;;;;;;;4.13;1.98;;;12.70;94.30;;;13.04;100.00;99892.22;4908107;29;20239;-74
2023/06/04 04:23:57;;;;;;;4.20;1.90;;;12.70;94.20;;;13.01;100.00;99895.78;4914205;29;20235;-73
2023/06/04 04:26:27;;;;;;;3.35;1.80;;;12.70;94.50;;;13.05;100.00;99916.09;4913703;29;20243;-73
2023/06/04 04:28:59;;;;;;;2.80;1.50;;;12.80;94.50;;;13.09;100.00;99893.94;4907821;29;20243;-74
2023/06/04 04:31:27;;;;;;;2.33;1.33;;;12.80;94.20;;;13.08;100.00;99907.22;4910975;29;20698;-73
2023/06/04 04:33:58;;;;;;;4.80;2.30;;;12.70;94.00;;;13.01;100.00;99893.13;4912986;29;20231;-73
2023/06/04 04:36:25;;;;;;;3.47;1.77;;;12.70;94.50;;;13.04;100.00;99918.78;4908803;29;20243;-74
2023/06/04 04:38:54;;;;;;;4.15;1.77;;;12.80;94.50;;;13.06;100.00;99920.53;4913354;29;20245;-73
2023/06/04 04:41:22;;;;;;;2.67;1.52;;;12.80;94.50;;;13.11;100.00;99934.63;4912835;29;20243;-74
2023/06/04 04:43:53;;;;;;;4.15;2.00;;;12.90;94.30;;;13.10;100.00;99938.19;4914311;29;20235;-74
2023/06/04 04:46:20;;;;;;;2.90;1.45;;;12.80;94.70;;;13.16;100.00;99942.56;4912668;29;20246;-74
2023/06/04 04:48:47;;;;;;;1.90;1.20;;;12.90;94.40;;;13.23;100.00;99973.50;4908288;29;20232;-73
2023/06/04 04:51:14;;;;;;;3.72;2.08;;;12.90;95.00;;;13.28;100.00;99969.03;4925499;29;20254;-74
2023/06/04 04:53:42;;;;;;;3.35;1.83;;;12.90;94.30;;;13.30;100.00;99963.69;4913828;29;20241;-73
2023/06/04 04:56:09;;;;;;;3.42;1.63;;;13.00;94.30;;;13.41;100.00;99975.97;4914045;29;20263;-73
2023/06/04 04:58:36;;;;;;;4.10;2.00;;;13.10;94.40;;;13.49;100.00;99989.19;4911720;29;20243;-74
2023/06/04 05:01:04;;;;;;;4.50;2.05;;;13.10;94.50;;;13.42;100.00;99983.06;4915196;29;20245;-73
2023/06/04 05:03:31;;;;;;;2.40;1.30;;;13.20;94.50;;;13.48;100.00;100000.69;4906392;29;20596;-72
2023/06/04 05:05:58;;;;;;;2.90;1.35;;;13.20;94.60;;;13.59;100.00;100009.44;4912379;29;20246;-73
2023/06/04 05:08:25;;;;;;;2.78;1.42;;;13.30;94.60;;;13.63;100.00;100010.28;4913143;29;20242;-74
2023/06/04 05:10:52;;;;;;;5.78;2.42;;;13.30;94.00;;;13.67;100.00;100012.91;4908410;29;20238;-73
2023/06/04 05:13:20;;;;;;;2.78;1.42;;;13.30;94.30;;;13.67;100.00;100012.91;4913973;29;20245;-74
2023/06/04 05:15:47;;;;;;;2.33;1.40;;;13.40;94.30;;;13.77;100.00;100035.81;4912845;29;20248;-73
2023/06/04 05:18:16;;;;;;;3.10;1.58;;;13.40;94.40;;;13.84;100.00;100027.78;4907543;29;20271;-73
2023/06/04 05:20:44;;;;;;;4.10;2.10;;;13.60;94.40;;;13.96;100.00;100051.59;4912186;29;20234;-73
2023/06/04 05:23:12;;;;;;;2.63;1.38;;;13.50;94.60;;;14.02;100.00;100063.03;4909693;29;20246;-73
2023/06/04 05:25:40;;;;;;;2.45;1.30;;;13.70;94.60;;;13.99;100.00;100075.47;4917236;29;20277;-73
2023/06/04 05:28:07;;;;;;;3.40;1.70;;;13.70;94.80;;;14.16;100.00;100076.16;4919648;29;20246;-73
2023/06/04 05:30:35;;;;;;;3.25;1.60;;;13.80;94.20;;;14.24;100.00;100084.94;4912539;29;20244;-75
2023/06/04 05:33:02;;;;;;;2.83;1.42;;;13.80;94.60;;;14.22;100.00;100076.09;4911222;29;20230;-75
2023/06/04 05:35:29;;;;;;;3.47;1.83;;;13.90;94.30;;;14.34;100.00;100091.06;4911137;29;20266;-75
2023/06/04 05:37:57;;;;;;;5.10;2.22;;;14.00;93.90;;;14.37;100.00;100083.06;4927730;29;20309;-75
2023/06/04 05:40:24;;;;;;;4.20;2.00;;;14.00;94.10;;;14.35;100.00;100092.81;4911587;29;20592;-75
2023/06/04 05:42:51;;;;;;;3.97;2.35;;;14.00;94.60;;;14.34;100.00;100072.44;4919136;29;20235;-75
2023/06/04 05:45:18;;;;;;;3.50;1.80;;;14.10;93.90;;;14.59;100.00;100097.00;4917335;29;20242;-75
2023/06/04 05:47:45;;;;;;;5.15;2.58;;;14.20;93.90;;;14.57;100.00;100102.34;4903608;29;20228;-75
2023/06/04 05:50:13;;;;;;;3.63;1.70;;;14.30;94.30;;;14.62;100.00;100078.34;4910340;29;20286;-76
2023/06/04 05:52:40;;;;;;;3.30;1.58;;;14.30;93.60;;;14.74;100.00;100088.81;4912242;29;20239;-76
2023/06/04 05:55:07;;;;;;;3.83;1.88;;;14.40;93.90;;;14.95;100.00;100108.94;4909153;29;20254;-76
2023/06/04 05:57:35;;;;;;;3.88;1.90;;;14.50;93.90;;;14.96;100.00;100111.59;4910479;29;20294;-79
2023/06/04 06:00:09;;;;;;;3.65;1.80;;;14.60;93.70;;;14.94;100.00;100093.88;4918504;29;20238;-79
2023/06/04 06:02:37;;;;;;;4.18;2.25;;;14.60;93.80;;;15.16;100.00;100107.75;4916412;29;20282;-79
2023/06/04 06:05:08;;;;;;;6.72;2.78;;;14.80;93.60;;;15.29;100.00;100106.66;4911140;29;20253;-76
2023/06/04 06:07:35;;;;;;;3.13;1.65;;;14.80;93.80;;;15.26;100.00;100099.59;4905637;29;20242;-76
2023/06/04 06:10:03;;;;;;;4.72;2.00;;;14.90;93.70;;;15.43;100.00;100111.78;4913274;29;20231;-76
2023/06/04 06:12:31;;;;;;;2.70;1.40;;;15.00;93.70;;;15.49;100.00;100104.56;4908287;29;20243;-76
2023/06/04 06:14:58;;;;;;;3.63;1.85;;;15.10;93.50;;;15.66;100.00;100115.88;4912323;29;20243;-75
2023/06/04 06:17:26;;;;;;;3.63;2.08;;;;;;;15.91;100.00;100185.69;4910955;29;20243;-76
2023/06/04 06:19:53;;;;;;;2.80;1.40;;;15.40;94.20;;;16.10;100.00;100188.91;4911398;29;20231;-77
2023/06/04 06:22:20;;;;;;;4.18;2.00;;;15.70;94.20;;;15.91;100.00;100086.13;4924601;29;20251;-77
2023/06/04 06:24:50;;;;;;;3.58;1.70;;;15.60;92.70;;;16.08;100.00;100121.38;4921481;29;20576;-78
2023/06/04 06:27:18;;;;;;;4.00;1.90;;;15.70;93.60;;;16.25;100.00;100140.63;4917654;29;20239;-78
2023/06/04 06:29:45;;;;;;;3.78;1.77;;;;;;;16.33;100.00;100119.13;4916149;29;20314;-75
2023/06/04 06:32:13;;;;;;;4.53;2.17;;;15.90;92.80;;;16.42;100.00;100113.59;4910746;29;20591;-76
2023/06/04 06:34:40;;;;;;;5.30;2.53;;;16.00;93.30;;;16.55;100.00;100083.06;4915399;29;20239;-76
2023/06/04 06:37:07;;;;;;;4.45;2.08;;;16.20;92.60;;;16.53;100.00;100063.53;4913889;29;20235;-76
2023/06/04 06:39:35;;;;;;;10.48;2.67;;;16.10;92.70;;;16.87;100.00;100109.13;4917421;29;20247;-75
2023/06/04 06:42:02;;;;;;;5.28;2.35;;;16.40;93.30;;;16.89;100.00;100061.00;4921050;29;20695;-76
2023/06/04 06:44:29;;;;;;;5.75;2.65;;;16.50;92.00;;;16.87;96.90;99994.28;4910051;29;20242;-76
2023/06/04 06:46:56;;;;;;;4.63;2.25;;;16.50;91.40;;;16.93;97.26;99998.63;4910163;29;20837;-76
2023/06/04 06:49:23;;;;;;;5.45;2.40;;;16.60;91.60;;;17.14;94.18;99963.38;4908627;29;20239;-76
2023/06/04 06:51:50;;;;;;;3.58;1.80;;;16.70;91.00;;;17.17;94.33;99957.06;4908790;29;20231;-76
2023/06/04 06:54:21;;;;;;;3.63;1.73;;;16.80;91.20;;;17.14;95.63;99960.72;4911157;29;20569;-76
2023/06/04 06:56:50;;;;;;;4.78;2.22;;;16.80;91.60;;;17.43;93.08;99951.06;4911197;29;20295;-76
2023/06/04 06:59:18;;;;;;;4.65;2.00;;;;;;;17.70;96.11;100001.16;4908344;29;20266;-76
2023/06/04 07:01:47;;;;;;;5.35;2.42;;;17.30;91.60;;;17.81;98.46;100030.28;4905278;29;20258;-76
2023/06/04 07:04:14;;;;;;;5.38;2.28;;;17.40;92.50;;;17.83;93.45;99972.28;4911406;29;20259;-76
2023/06/04 07:06:41;;;;;;;2.67;1.35;;;17.50;90.90;;;18.16;91.67;99970.41;4915971;29;20236;-76
2023/06/04 07:09:09;;;;;;;4.40;2.03;;;17.70;90.90;;;18.13;92.80;99963.38;4916242;29;20246;-76
2023/06/04 07:11:36;;;;;;;3.78;1.88;;;17.70;91.00;;;18.49;94.80;100014.09;4910553;29;20239;-76
2023/06/04 07:14:03;;;;;;;5.00;2.17;;;18.00;92.10;;;18.53;90.71;99947.00;4911303;29;20719;-76
2023/06/04 07:16:30;;;;;;;4.65;2.13;;;18.10;90.70;;;18.88;88.39;99933.44;4911878;29;20254;-76
2023/06/04 07:18:57;;;;;;;7.35;3.05;;;18.30;90.70;;;18.88;85.24;99875.38;4911040;29;20243;-75
2023/06/04 07:21:25;;;;;;;5.65;2.50;;;18.50;90.00;;;18.63;83.02;99783.38;4908348;29;20246;-76
2023/06/04 07:23:52;;;;;;;3.72;1.85;;;18.40;88.80;;;19.15;85.32;99862.81;4912093;29;20249;-75
2023/06/04 07:26:20;;;;;;;5.00;2.35;;;18.60;90.30;;;19.17;88.97;99902.06;4904830;29;20585;-77
2023/06/04 07:28:47;;;;;;;6.60;2.67;;;18.80;91.10;;;19.27;82.66;99819.50;4906719;29;20238;-76
2023/06/04 07:31:17;;;;;;;4.80;2.10;;;18.80;88.90;;;19.59;82.03;99836.28;4912378;29;20263;-76
2023/06/04 07:33:45;;;;;;;6.13;2.58;;;19.00;89.00;;;19.83;78.35;99789.75;4905857;29;20246;-77
2023/06/04 07:36:16;;;;;;;9.35;3.63;;;19.10;87.30;;;19.48;79.51;99702.53;4909058;29;20239;-77
2023/06/04 07:38:43;;;;;;;3.10;1.60;;;19.10;88.80;;;19.85;82.23;99795.03;4913938;29;20239;-77
2023/06/04 07:41:11;;;;;;;3.47;1.60;;;19.40;89.70;;;19.36;79.95;99674.38;4913423;29;20246;-75
2023/06/04 07:43:38;;;;;;;3.70;1.75;;;19.30;88.30;;;19.16;81.71;99652.84;4913500;29;20243;-76
2023/06/04 07:46:06;;;;;;;4.45;2.17;;;19.00;88.70;;;19.21;79.05;99609.78;4908622;29;20231;-75
2023/06/04 07:48:34;;;;;;;5.43;2.38;;;;;;;19.10;78.03;99573.56;4911041;29;20620;-76
2023/06/04 07:51:04;;;;;;;7.13;2.92;;;19.00;88.40;;;19.50;80.23;99644.34;4911964;29;20242;-76
2023/06/04 07:53:31;;;;;;;4.93;2.20;;;19.00;88.90;;;19.24;80.91;99605.16;4912982;29;20298;-77
2023/06/04 07:55:59;;;;;;;7.13;3.90;;;19.00;88.60;;;19.46;78.18;99605.19;4906936;29;20267;-77
2023/06/04 07:58:26;;;;;;;4.53;2.13;;;;;;;19.62;78.73;99633.19;4906274;29;20262;-77
2023/06/04 08:00:54;;;;;;;6.10;2.40;;;;;;;19.63;78.17;99613.47;4912075;29;20234;-78
2023/06/04 08:03:22;;;;;;;5.20;2.28;;;19.30;87.10;;;19.76;81.00;99648.72;4915214;29;20242;-76
2023/06/04 08:05:50;;;;;;;4.97;2.33;;;19.40;89.50;;;19.23;79.66;99540.91;4908406;29;20243;-77
2023/06/04 08:08:17;;;;;;;4.65;2.08;;;19.00;87.50;;;19.60;79.25;99580.53;4912334;29;20250;-77
2023/06/04 08:10:45;;;;;;;5.30;2.40;;;19.20;88.90;;;19.64;81.94;99612.53;4923131;29;20227;-77
2023/06/04 08:13:12;;;;;;;5.68;2.17;;;19.20;89.40;;;19.88;80.83;99648.22;4910619;29;20245;-78
2023/06/04 08:15:39;;;;;;;4.47;1.90;;;19.50;88.10;;;20.25;82.26;99687.81;4912409;29;20242;-77
2023/06/04 08:18:06;;;;;;;5.10;2.20;;;19.80;90.30;;;20.00;76.38;99582.41;4908773;29;20231;-76
2023/06/04 08:20:33;;;;;;;5.95;2.58;;;19.80;86.70;;;20.38;79.98;99669.34;4913477;29;20307;-76
2023/06/04 08:23:00;;;;;;;5.15;2.28;;;19.90;89.20;;;20.96;74.68;99651.56;4913875;29;20249;-77
2023/06/04 08:25:28;;;;;;;4.32;2.00;;;20.40;86.80;;;20.21;69.60;99436.53;4913708;29;20257;-76
2023/06/04 08:27:55;;;;;;;5.05;2.17;;;19.90;83.80;;;20.77;68.21;99487.59;4914250;29;20242;-78
2023/06/04 08:30:23;;;;;;;3.95;1.83;;;20.20;83.80;;;20.76;71.15;99495.75;4927373;29;20235;-77
2023/06/04 08:32:50;;;;;;;5.05;2.17;;;20.30;86.20;;;21.05;67.34;99486.31;4913223;29;20294;-78
2023/06/04 08:35:17;;;;;;;4.60;2.00;;;20.60;83.40;;;21.12;67.44;99457.31;4906157;29;20242;-78
2023/06/04 08:37:44;;;;;;;3.92;1.73;;;20.60;84.20;;;21.21;64.12;99406.63;4919283;29;20236;-76
2023/06/04 08:40:12;;;;;;;3.90;1.73;;;20.90;82.10;;;20.74;63.86;99293.44;4906887;29;20235;-78
2023/06/04 08:42:46;;;;;;;4.93;2.00;;;20.70;81.00;;;21.35;71.07;99474.06;4919364;29;20242;-76
2023/06/04 08:45:17;;;;;;;5.28;2.00;;;21.10;84.30;;;21.52;69.56;99486.66;4914793;29;20250;-76
2023/06/04 08:47:50;;;;;;;5.50;2.38;;;21.20;85.40;;;21.51;70.15;99479.53;4904445;29;20269;-76
2023/06/04 08:50:21;;;;;;;4.10;1.95;;;21.20;85.10;;;21.89;62.98;99426.41;4908122;29;20327;-75
2023/06/04 08:52:56;;;;;;;3.58;1.58;;;21.50;81.40;;;21.87;61.94;99371.78;4911762;29;20234;-75
2023/06/04 08:55:24;;;;;;;4.70;1.88;;;;;;;21.68;62.98;99334.25;4926774;29;20244;-76
2023/06/04 08:57:52;;;;;;;4.10;1.80;;;21.40;83.70;;;21.69;66.73;99362.88;4909601;29;20242;-76
2023/06/04 09:00:20;;;;;;;3.70;1.65;;;21.40;84.20;;;22.01;67.88;99424.88;4909881;29;20238;-76
2023/06/04 09:02:50;;;;;;;5.30;2.30;;;21.70;84.80;;;21.68;62.60;99266.97;4907259;29;20319;-75
2023/06/04 09:05:25;;;;;;;4.97;2.00;;;21.80;82.60;;;22.57;63.32;99402.97;4914089;29;20240;-75
2023/06/04 09:07:54;;;;;;;3.28;1.52;;;22.00;83.40;;;22.43;65.81;99407.41;4915009;29;20233;-74
2023/06/04 09:10:25;;;;;;;2.72;1.38;;;22.10;83.70;;;23.13;63.01;99439.31;4910043;29;20260;-75
2023/06/04 09:12:57;;;;;;;2.70;1.42;;;22.60;82.70;;;22.67;64.21;99346.72;4907474;29;20238;-75
2023/06/04 09:15:24;;;;;;;4.07;2.08;;;22.60;83.30;;;22.59;64.72;99327.44;4899042;29;20242;-76
2023/06/04 09:17:51;;;;;;;2.60;1.60;;;22.40;83.80;;;22.77;63.27;99314.72;4906555;29;20230;-75
2023/06/04 09:20:23;;;;;;;3.03;1.60;;;22.50;83.70;;;22.59;65.07;99316.66;4911069;29;20242;-75
2023/06/04 09:22:50;;;;;;;3.42;1.58;;;22.40;83.70;;;22.60;60.76;99240.25;4916593;29;20248;-75
2023/06/04 09:25:26;;;;;;;2.50;1.23;;;22.20;78.90;;;22.41;58.13;99153.41;4912433;29;20242;-75
2023/06/04 09:28:05;;;;;;;3.58;1.70;;;22.30;82.40;;;22.77;64.07;99298.53;4905840;29;20298;-75
2023/06/04 09:30:33;;;;;;;1.98;1.08;;;22.30;83.00;;;22.61;63.75;99263.53;4897109;29;20234;-75
2023/06/04 09:33:09;;;;;;;2.30;1.10;;;22.40;82.90;;;22.75;62.27;99233.06;4907416;29;20325;-75
2023/06/04 09:35:37;;;;;;;2.35;1.30;;;22.30;82.50;;;22.88;61.56;99243.06;4912853;29;20699;-76
2023/06/04 09:38:05;;;;;;;2.28;1.17;;;22.50;82.00;;;23.15;57.70;99208.16;4906567;29;20723;-74
2023/06/04 09:40:37;;;;;;;3.97;2.00;;;22.70;80.00;;;23.50;61.65;99303.13;4912754;29;20245;-75
2023/06/04 09:43:05;;;;;;;2.47;1.38;;;23.10;82.70;;;23.20;59.52;99194.38;4916461;29;20294;-74
2023/06/04 09:45:37;;;;;;;1.98;1.17;;;23.00;81.10;;;23.81;60.12;99285.91;4910069;29;20250;-75
2023/06/04 09:48:05;;;;;;;4.57;2.17;;;23.30;79.70;;;23.47;57.97;99168.41;4903896;29;20243;-75
2023/06/04 09:50:38;;;;;;;3.17;1.60;;;23.30;79.90;;;23.39;57.54;99126.66;4905652;29;20329;-74
2023/06/04 09:53:25;;;;;;;3.10;1.50;;;23.00;80.20;;;23.48;54.90;99062.22;4913849;29;20262;-74
2023/06/04 09:56:01;;;;;;;2.60;1.40;;;23.00;78.10;;;24.06;58.77;99217.69;4913579;29;20250;-75
2023/06/04 09:58:28;;;;;;;3.08;1.48;;;23.70;80.90;;;24.32;56.08;99194.38;4910921;29;20245;-74
2023/06/04 10:01:02;;;;;;;3.63;1.73;;;24.00;78.40;;;24.61;55.07;99192.41;4913880;29;20246;-75
2023/06/04 10:03:35;;;;;;;1.83;1.02;;;24.10;79.70;;;24.30;54.89;99109.00;4913332;29;20238;-75
2023/06/04 10:06:05;;;;;;;3.85;1.80;;;24.00;79.20;;;24.40;56.94;99159.59;4909809;29;20262;-75
2023/06/04 10:08:34;;;;;;;2.15;1.27;;;24.10;80.10;;;24.42;53.94;99071.19;4913689;29;20239;-74
2023/06/04 10:11:03;;;;;;;2.90;1.35;;;24.50;80.20;;;24.93;56.24;99178.53;4911642;29;20234;-75
2023/06/04 10:13:39;;;;;;;2.47;1.48;;;24.50;80.90;;;24.88;53.86;99078.78;4903807;29;20240;-74
2023/06/04 10:16:07;;;;;;;2.22;1.27;;;24.80;77.20;;;24.94;55.22;99104.53;4903220;29;20265;-74
2023/06/04 10:18:45;;;;;;;1.40;0.85;;;24.70;80.00;;;25.82;57.03;99244.34;4910677;29;20245;-75
2023/06/04 10:21:14;;;;;;;2.60;1.52;;;25.20;81.80;;;25.46;51.96;99050.25;4910072;29;20337;-75